GLO2408 SBAR-SBKG
Flight info
| Callsign | GLO2408 |
|---|---|
| Flight time | 0h 45m |
| Altitude | 31000 |
| Route | SIMAD2A ANDIG UZ23 ANBEX SBKG |
| Aircraft | B738/M-SDE2E3FGHIRWXY/LB1 |
Departure
| Time | 2026-04-23 02:29 |
|---|---|
| Airport | Aracaju - Santa Maria Airport (SBAR) |
Arrival
| Time | 2026-04-23 03:14 |
|---|---|
| Airport | Presidente João Suassuna Airport (SBKG) |
| Time | Latitude | Longitude | Altitude | Speed | Heading |
|---|---|---|---|---|---|
| 2026-04-23 02:03 | -10.98626 | -37.07312 | 68 ft | 0 kts | 182° |
| 2026-04-23 02:19 | -10.98617 | -37.07312 | 40 ft | 2 kts | 179° |
| 2026-04-23 02:19 | -10.98600 | -37.07312 | 40 ft | 2 kts | 200° |
| 2026-04-23 02:19 | -10.98587 | -37.07302 | 37 ft | 2 kts | 232° |
| 2026-04-23 02:20 | -10.98578 | -37.07288 | 36 ft | 2 kts | 251° |
| 2026-04-23 02:20 | -10.98576 | -37.07271 | 37 ft | 2 kts | 272° |
| 2026-04-23 02:20 | -10.98576 | -37.07254 | 39 ft | 2 kts | 272° |
| 2026-04-23 02:20 | -10.98577 | -37.07237 | 36 ft | 2 kts | 272° |
| 2026-04-23 02:21 | -10.98578 | -37.07220 | 36 ft | 2 kts | 272° |
| 2026-04-23 02:21 | -10.98579 | -37.07204 | 36 ft | 2 kts | 272° |
| 2026-04-23 02:21 | -10.98579 | -37.07188 | 36 ft | 2 kts | 272° |
| 2026-04-23 02:21 | -10.98579 | -37.07182 | 36 ft | 0 kts | 271° |
| 2026-04-23 02:23 | -10.98579 | -37.07186 | 37 ft | 3 kts | 271° |
| 2026-04-23 02:24 | -10.98568 | -37.07226 | 40 ft | 8 kts | 316° |
| 2026-04-23 02:24 | -10.98514 | -37.07232 | 40 ft | 8 kts | 2° |
| 2026-04-23 02:24 | -10.98483 | -37.07231 | 41 ft | 0 kts | 2° |
| 2026-04-23 02:25 | -10.98480 | -37.07231 | 41 ft | 2 kts | 2° |
| 2026-04-23 02:25 | -10.98423 | -37.07230 | 40 ft | 13 kts | 357° |
| 2026-04-23 02:26 | -10.98393 | -37.07305 | 40 ft | 13 kts | 272° |
| 2026-04-23 02:26 | -10.98391 | -37.07393 | 41 ft | 13 kts | 272° |
| 2026-04-23 02:26 | -10.98387 | -37.07505 | 43 ft | 19 kts | 272° |
| 2026-04-23 02:26 | -10.98381 | -37.07667 | 42 ft | 25 kts | 272° |
| 2026-04-23 02:27 | -10.98375 | -37.07845 | 41 ft | 24 kts | 272° |
| 2026-04-23 02:27 | -10.98363 | -37.07965 | 41 ft | 10 kts | 289° |
| 2026-04-23 02:27 | -10.98335 | -37.08023 | 41 ft | 10 kts | 243° |
| 2026-04-23 02:27 | -10.98372 | -37.07998 | 42 ft | 9 kts | 86° |
| 2026-04-23 02:28 | -10.98372 | -37.07981 | 41 ft | 0 kts | 91° |
| 2026-04-23 02:28 | -10.98372 | -37.07941 | 41 ft | 13 kts | 91° |
| 2026-04-23 02:28 | -10.98385 | -37.07580 | 43 ft | 90 kts | 92° |
| 2026-04-23 02:29 | -10.98416 | -37.06718 | 50 ft | 153 kts | 94° |
| 2026-04-23 02:29 | -10.98456 | -37.05565 | 660 ft | 163 kts | 94° |
| 2026-04-23 02:29 | -10.98477 | -37.04452 | 1679 ft | 158 kts | 94° |
| 2026-04-23 02:29 | -10.98318 | -37.03301 | 2295 ft | 180 kts | 66° |
| 2026-04-23 02:30 | -10.97674 | -37.02075 | 2644 ft | 212 kts | 65° |
| 2026-04-23 02:30 | -10.96953 | -37.00669 | 2993 ft | 232 kts | 65° |
| 2026-04-23 02:30 | -10.96175 | -36.99155 | 3403 ft | 252 kts | 65° |
| 2026-04-23 02:30 | -10.95354 | -36.97562 | 4123 ft | 261 kts | 64° |
| 2026-04-23 02:31 | -10.94512 | -36.95934 | 5176 ft | 260 kts | 64° |
| 2026-04-23 02:31 | -10.93661 | -36.94288 | 6054 ft | 266 kts | 64° |
| 2026-04-23 02:31 | -10.92794 | -36.92612 | 6902 ft | 270 kts | 64° |
| 2026-04-23 02:31 | -10.91912 | -36.90907 | 7764 ft | 273 kts | 64° |
| 2026-04-23 02:32 | -10.91022 | -36.89189 | 8615 ft | 277 kts | 63° |
| 2026-04-23 02:32 | -10.89844 | -36.87618 | 9417 ft | 286 kts | 42° |
| 2026-04-23 02:32 | -10.88207 | -36.86435 | 10251 ft | 291 kts | 35° |
| 2026-04-23 02:32 | -10.86463 | -36.85305 | 10599 ft | 313 kts | 34° |
| 2026-04-23 02:33 | -10.84559 | -36.84096 | 10992 ft | 329 kts | 34° |
| 2026-04-23 02:33 | -10.82595 | -36.82851 | 11699 ft | 334 kts | 34° |
| 2026-04-23 02:33 | -10.80620 | -36.81594 | 12468 ft | 337 kts | 34° |
| 2026-04-23 02:33 | -10.78623 | -36.80315 | 13232 ft | 340 kts | 34° |
| 2026-04-23 02:34 | -10.76614 | -36.79024 | 13951 ft | 344 kts | 34° |
| 2026-04-23 02:34 | -10.74583 | -36.77713 | 14584 ft | 347 kts | 34° |
| 2026-04-23 02:34 | -10.72535 | -36.76390 | 15240 ft | 351 kts | 34° |
| 2026-04-23 02:34 | -10.70462 | -36.75050 | 15885 ft | 354 kts | 33° |
| 2026-04-23 02:35 | -10.68400 | -36.73717 | 16525 ft | 358 kts | 33° |
| 2026-04-23 02:35 | -10.66295 | -36.72356 | 17148 ft | 361 kts | 33° |
| 2026-04-23 02:35 | -10.64165 | -36.70978 | 17744 ft | 365 kts | 33° |
| 2026-04-23 02:35 | -10.62008 | -36.69583 | 18352 ft | 369 kts | 33° |
| 2026-04-23 02:36 | -10.59830 | -36.68175 | 18864 ft | 372 kts | 33° |
| 2026-04-23 02:36 | -10.57636 | -36.66756 | 19391 ft | 375 kts | 33° |
| 2026-04-23 02:36 | -10.55424 | -36.65326 | 19896 ft | 379 kts | 33° |
| 2026-04-23 02:36 | -10.53187 | -36.63880 | 20403 ft | 382 kts | 33° |
| 2026-04-23 02:37 | -10.50937 | -36.62426 | 20900 ft | 386 kts | 33° |
| 2026-04-23 02:37 | -10.48685 | -36.60972 | 21372 ft | 390 kts | 33° |
| 2026-04-23 02:37 | -10.46317 | -36.59619 | 21818 ft | 395 kts | 22° |
| 2026-04-23 02:37 | -10.43630 | -36.58957 | 22293 ft | 399 kts | 10° |
| 2026-04-23 02:38 | -10.40876 | -36.58530 | 22768 ft | 403 kts | 9° |
| 2026-04-23 02:38 | -10.38088 | -36.58123 | 23206 ft | 407 kts | 9° |
| 2026-04-23 02:38 | -10.35275 | -36.57706 | 23631 ft | 410 kts | 9° |
| 2026-04-23 02:38 | -10.32448 | -36.57272 | 24007 ft | 413 kts | 9° |
| 2026-04-23 02:39 | -10.29602 | -36.56823 | 24417 ft | 415 kts | 9° |
| 2026-04-23 02:39 | -10.26746 | -36.56366 | 24833 ft | 416 kts | 9° |
| 2026-04-23 02:39 | -10.23921 | -36.55910 | 25222 ft | 418 kts | 9° |
| 2026-04-23 02:39 | -10.21038 | -36.55445 | 25600 ft | 421 kts | 9° |
| 2026-04-23 02:40 | -10.18132 | -36.54978 | 25987 ft | 423 kts | 9° |
| 2026-04-23 02:40 | -10.15263 | -36.54330 | 26346 ft | 425 kts | 21° |
| 2026-04-23 02:40 | -10.12674 | -36.52896 | 26715 ft | 426 kts | 34° |
| 2026-04-23 02:40 | -10.10240 | -36.51188 | 27118 ft | 427 kts | 35° |
| 2026-04-23 02:41 | -10.07816 | -36.49430 | 27466 ft | 430 kts | 36° |
| 2026-04-23 02:41 | -10.05379 | -36.47652 | 27814 ft | 432 kts | 36° |
| 2026-04-23 02:41 | -10.02960 | -36.45896 | 28147 ft | 435 kts | 35° |
| 2026-04-23 02:41 | -10.00487 | -36.44116 | 28494 ft | 437 kts | 35° |
| 2026-04-23 02:42 | -9.98000 | -36.42338 | 28831 ft | 439 kts | 35° |
| 2026-04-23 02:42 | -9.95491 | -36.40554 | 29161 ft | 441 kts | 34° |
| 2026-04-23 02:42 | -9.94047 | -36.39529 | 29341 ft | 443 kts | 34° |
| 2026-04-23 02:42 | -9.91476 | -36.37709 | 29653 ft | 445 kts | 34° |
| 2026-04-23 02:43 | -9.88936 | -36.35912 | 29973 ft | 447 kts | 34° |
| 2026-04-23 02:43 | -9.86379 | -36.34104 | 30259 ft | 449 kts | 34° |
| 2026-04-23 02:43 | -9.83812 | -36.32288 | 30523 ft | 451 kts | 34° |
| 2026-04-23 02:43 | -9.81275 | -36.30494 | 30791 ft | 452 kts | 34° |
| 2026-04-23 02:44 | -9.78692 | -36.28667 | 31016 ft | 454 kts | 34° |
| 2026-04-23 02:44 | -9.73446 | -36.24958 | 31018 ft | 464 kts | 34° |
| 2026-04-23 02:45 | -9.68103 | -36.21182 | 31018 ft | 470 kts | 34° |
| 2026-04-23 02:45 | -9.62774 | -36.17416 | 31016 ft | 470 kts | 34° |
| 2026-04-23 02:46 | -9.57405 | -36.13624 | 31016 ft | 471 kts | 34° |
| 2026-04-23 02:46 | -9.52032 | -36.09831 | 31016 ft | 470 kts | 34° |
| 2026-04-23 02:47 | -9.46668 | -36.06046 | 31017 ft | 470 kts | 34° |
| 2026-04-23 02:47 | -9.41312 | -36.02267 | 31018 ft | 469 kts | 34° |
| 2026-04-23 02:48 | -9.35962 | -35.98494 | 31018 ft | 468 kts | 34° |
| 2026-04-23 02:48 | -9.30662 | -35.94757 | 31017 ft | 467 kts | 34° |
| 2026-04-23 02:49 | -9.25323 | -35.90995 | 31018 ft | 467 kts | 34° |
| 2026-04-23 02:49 | -9.19999 | -35.87245 | 31017 ft | 466 kts | 34° |
| 2026-04-23 02:50 | -9.14678 | -35.83498 | 31015 ft | 466 kts | 34° |
| 2026-04-23 02:50 | -9.09383 | -35.79769 | 31011 ft | 466 kts | 34° |
| 2026-04-23 02:51 | -9.03923 | -35.76246 | 30999 ft | 466 kts | 21° |
| 2026-04-23 02:51 | -9.00818 | -35.75371 | 31021 ft | 465 kts | 8° |
| 2026-04-23 02:51 | -8.97608 | -35.75267 | 31003 ft | 459 kts | 354° |
| 2026-04-23 02:51 | -8.94511 | -35.75793 | 31020 ft | 442 kts | 349° |
| 2026-04-23 02:52 | -8.91553 | -35.76408 | 31003 ft | 430 kts | 348° |
| 2026-04-23 02:52 | -8.85710 | -35.77663 | 30899 ft | 432 kts | 348° |
| 2026-04-23 02:52 | -8.82804 | -35.78274 | 30544 ft | 430 kts | 348° |
| 2026-04-23 02:53 | -8.79888 | -35.78876 | 30139 ft | 426 kts | 348° |
| 2026-04-23 02:53 | -8.76998 | -35.79463 | 29661 ft | 423 kts | 349° |
| 2026-04-23 02:53 | -8.74123 | -35.80042 | 29186 ft | 419 kts | 349° |
| 2026-04-23 02:53 | -8.71272 | -35.80612 | 28715 ft | 416 kts | 349° |
| 2026-04-23 02:54 | -8.68448 | -35.81176 | 28260 ft | 412 kts | 349° |
| 2026-04-23 02:54 | -8.65640 | -35.81736 | 27804 ft | 409 kts | 349° |
| 2026-04-23 02:54 | -8.62856 | -35.82292 | 27365 ft | 406 kts | 349° |
| 2026-04-23 02:54 | -8.60098 | -35.82842 | 26916 ft | 404 kts | 349° |
| 2026-04-23 02:55 | -8.57390 | -35.83383 | 26490 ft | 401 kts | 349° |
| 2026-04-23 02:55 | -8.54660 | -35.83928 | 26066 ft | 399 kts | 349° |
| 2026-04-23 02:55 | -8.51935 | -35.84472 | 25594 ft | 398 kts | 349° |
| 2026-04-23 02:55 | -8.49231 | -35.85011 | 25155 ft | 396 kts | 349° |
| 2026-04-23 02:56 | -8.46534 | -35.85550 | 24712 ft | 395 kts | 349° |
| 2026-04-23 02:56 | -8.43841 | -35.86087 | 24271 ft | 394 kts | 349° |
| 2026-04-23 02:56 | -8.41153 | -35.86623 | 23831 ft | 393 kts | 349° |
| 2026-04-23 02:56 | -8.38475 | -35.87158 | 23353 ft | 392 kts | 349° |
| 2026-04-23 02:57 | -8.35843 | -35.87683 | 22883 ft | 390 kts | 349° |
| 2026-04-23 02:57 | -8.33198 | -35.88210 | 22437 ft | 387 kts | 349° |
| 2026-04-23 02:57 | -8.30563 | -35.88736 | 22003 ft | 384 kts | 349° |
| 2026-04-23 02:57 | -8.27952 | -35.89257 | 21564 ft | 381 kts | 349° |
| 2026-04-23 02:58 | -8.25356 | -35.89774 | 21148 ft | 379 kts | 350° |
| 2026-04-23 02:58 | -8.22782 | -35.90287 | 20724 ft | 377 kts | 350° |
| 2026-04-23 02:58 | -8.20216 | -35.90799 | 20303 ft | 375 kts | 350° |
| 2026-04-23 02:58 | -8.17668 | -35.91307 | 19873 ft | 373 kts | 350° |
| 2026-04-23 02:59 | -8.15125 | -35.91814 | 19453 ft | 372 kts | 350° |
| 2026-04-23 02:59 | -8.12624 | -35.92312 | 19035 ft | 371 kts | 350° |
| 2026-04-23 02:59 | -8.10093 | -35.92816 | 18607 ft | 370 kts | 350° |
| 2026-04-23 02:59 | -8.07575 | -35.93317 | 18171 ft | 369 kts | 351° |
| 2026-04-23 03:00 | -8.05066 | -35.93817 | 17713 ft | 367 kts | 351° |
| 2026-04-23 03:00 | -8.02570 | -35.94314 | 17294 ft | 364 kts | 351° |
| 2026-04-23 03:00 | -8.00087 | -35.94809 | 16876 ft | 362 kts | 351° |
| 2026-04-23 03:00 | -7.97626 | -35.95299 | 16462 ft | 359 kts | 351° |
| 2026-04-23 03:01 | -7.95216 | -35.95779 | 16059 ft | 357 kts | 351° |
| 2026-04-23 03:01 | -7.92788 | -35.96262 | 15657 ft | 355 kts | 351° |
| 2026-04-23 03:01 | -7.90373 | -35.96743 | 15237 ft | 353 kts | 351° |
| 2026-04-23 03:01 | -7.87959 | -35.97223 | 14830 ft | 352 kts | 351° |
| 2026-04-23 03:02 | -7.85564 | -35.97699 | 14424 ft | 350 kts | 351° |
| 2026-04-23 03:02 | -7.83177 | -35.98174 | 14015 ft | 349 kts | 351° |
| 2026-04-23 03:02 | -7.80795 | -35.98647 | 13587 ft | 349 kts | 351° |
| 2026-04-23 03:02 | -7.78419 | -35.99120 | 13158 ft | 346 kts | 351° |
| 2026-04-23 03:03 | -7.76093 | -35.99582 | 12756 ft | 344 kts | 351° |
| 2026-04-23 03:03 | -7.73760 | -36.00046 | 12361 ft | 342 kts | 351° |
| 2026-04-23 03:03 | -7.71428 | -36.00510 | 11963 ft | 340 kts | 351° |
| 2026-04-23 03:03 | -7.69119 | -36.00970 | 11559 ft | 338 kts | 351° |
| 2026-04-23 03:04 | -7.66821 | -36.01426 | 11178 ft | 336 kts | 351° |
| 2026-04-23 03:04 | -7.64524 | -36.01883 | 10769 ft | 335 kts | 351° |
| 2026-04-23 03:04 | -7.62238 | -36.02337 | 10464 ft | 331 kts | 351° |
| 2026-04-23 03:04 | -7.60011 | -36.02780 | 10282 ft | 323 kts | 351° |
| 2026-04-23 03:05 | -7.57861 | -36.03209 | 10139 ft | 315 kts | 351° |
| 2026-04-23 03:05 | -7.55739 | -36.03631 | 9977 ft | 307 kts | 351° |
| 2026-04-23 03:05 | -7.53687 | -36.04039 | 9908 ft | 296 kts | 351° |
| 2026-04-23 03:05 | -7.51624 | -36.04448 | 9388 ft | 303 kts | 351° |
| 2026-04-23 03:06 | -7.49561 | -36.04856 | 9014 ft | 303 kts | 351° |
| 2026-04-23 03:06 | -7.47494 | -36.05266 | 8665 ft | 301 kts | 351° |
| 2026-04-23 03:06 | -7.45457 | -36.05670 | 8394 ft | 297 kts | 351° |
| 2026-04-23 03:06 | -7.43430 | -36.06072 | 8076 ft | 297 kts | 351° |
| 2026-04-23 03:07 | -7.41406 | -36.06474 | 7751 ft | 296 kts | 351° |
| 2026-04-23 03:07 | -7.39395 | -36.06873 | 7447 ft | 295 kts | 350° |
| 2026-04-23 03:07 | -7.37408 | -36.07268 | 7120 ft | 295 kts | 350° |
| 2026-04-23 03:07 | -7.35399 | -36.07667 | 6815 ft | 293 kts | 350° |
| 2026-04-23 03:08 | -7.33401 | -36.08063 | 6524 ft | 292 kts | 350° |
| 2026-04-23 03:08 | -7.31416 | -36.08457 | 6208 ft | 291 kts | 349° |
| 2026-04-23 03:08 | -7.29438 | -36.08850 | 5905 ft | 289 kts | 350° |
| 2026-04-23 03:08 | -7.27471 | -36.09240 | 5604 ft | 287 kts | 349° |
| 2026-04-23 03:09 | -7.25513 | -36.09380 | 5435 ft | 278 kts | 11° |
| 2026-04-23 03:09 | -7.23749 | -36.08739 | 5305 ft | 266 kts | 33° |
| 2026-04-23 03:09 | -7.22249 | -36.07712 | 5199 ft | 257 kts | 37° |
| 2026-04-23 03:09 | -7.20827 | -36.06698 | 5081 ft | 250 kts | 37° |
| 2026-04-23 03:10 | -7.19442 | -36.05707 | 5032 ft | 239 kts | 40° |
| 2026-04-23 03:10 | -7.18456 | -36.04454 | 5025 ft | 224 kts | 72° |
| 2026-04-23 03:10 | -7.18222 | -36.02884 | 4650 ft | 235 kts | 100° |
| 2026-04-23 03:10 | -7.18697 | -36.01363 | 4314 ft | 226 kts | 121° |
| 2026-04-23 03:11 | -7.19536 | -36.00091 | 4071 ft | 213 kts | 127° |
| 2026-04-23 03:11 | -7.20103 | -35.99301 | 3852 ft | 208 kts | 127° |
| 2026-04-23 03:11 | -7.20930 | -35.98150 | 3592 ft | 197 kts | 127° |
| 2026-04-23 03:11 | -7.21712 | -35.97058 | 3315 ft | 187 kts | 127° |
| 2026-04-23 03:12 | -7.22666 | -35.95712 | 3011 ft | 168 kts | 127° |
| 2026-04-23 03:12 | -7.23109 | -35.95086 | 2901 ft | 157 kts | 127° |
| 2026-04-23 03:12 | -7.23912 | -35.93955 | 2634 ft | 150 kts | 128° |
| 2026-04-23 03:12 | -7.24316 | -35.93384 | 2422 ft | 150 kts | 126° |
| 2026-04-23 03:13 | -7.24900 | -35.92548 | 2268 ft | 144 kts | 127° |
| 2026-04-23 03:13 | -7.25454 | -35.91773 | 2115 ft | 149 kts | 126° |
| 2026-04-23 03:13 | -7.25854 | -35.91203 | 1971 ft | 150 kts | 125° |
| 2026-04-23 03:13 | -7.26449 | -35.90342 | 1752 ft | 151 kts | 124° |
| 2026-04-23 03:14 | -7.27013 | -35.89528 | 1669 ft | 124 kts | 124° |
| 2026-04-23 03:14 | -7.27323 | -35.89083 | 1665 ft | 24 kts | 127° |
| 2026-04-23 03:14 | -7.27391 | -35.89022 | 1666 ft | 8 kts | 79° |
| 2026-04-23 03:14 | -7.27374 | -35.89016 | 1664 ft | 2 kts | 334° |
| 2026-04-23 03:15 | -7.27353 | -35.89042 | 1665 ft | 11 kts | 307° |
| 2026-04-23 03:15 | -7.27273 | -35.89156 | 1666 ft | 28 kts | 306° |
| 2026-04-23 03:15 | -7.27155 | -35.89324 | 1666 ft | 29 kts | 305° |
| 2026-04-23 03:15 | -7.27059 | -35.89462 | 1661 ft | 12 kts | 305° |
| 2026-04-23 03:16 | -7.27031 | -35.89476 | 1665 ft | 1 kts | 8° |
| 2026-04-23 03:16 | -7.27010 | -35.89462 | 1664 ft | 8 kts | 35° |
| 2026-04-23 03:16 | -7.26987 | -35.89445 | 1669 ft | 0 kts | 36° |
| 2026-04-23 03:17 | -7.26980 | -35.89440 | 1667 ft | 3 kts | 36° |
| 2026-04-23 03:17 | -7.26943 | -35.89423 | 1668 ft | 5 kts | 32° |
| 2026-04-23 03:18 | -7.26931 | -35.89415 | 1667 ft | 0 kts | 34° |